Time;durP1;ratioP1;P1;durP2;ratioP2;P2;SDS_P1;SDS_P2;PMS_P1;PMS_P2;Temp;Humidity;BMP_temperature;BMP_pressure;BME280_temperature;BME280_humidity;BME280_pressure;Samples;Min_cycle;Max_cycle;Signal;HPM_P1;HPM_P2
2023/03/04 00:00:26;;;;;;;20.10;12.48;;;5.20;99.90;;;;;;5042066;28;20146;-67
2023/03/04 00:02:51;;;;;;;19.40;13.32;;;5.10;99.90;;;;;;5056202;28;20032;-67
2023/03/04 00:05:17;;;;;;;17.30;11.07;;;5.00;99.90;;;;;;5044998;28;20048;-67
2023/03/04 00:07:43;;;;;;;16.20;10.65;;;4.50;99.90;;;;;;5041945;28;20029;-67
2023/03/04 00:10:10;;;;;;;18.13;11.30;;;4.20;99.90;;;;;;5051841;28;20043;-67
2023/03/04 00:12:36;;;;;;;17.70;10.13;;;3.90;99.90;;;;;;5052101;28;20040;-72
2023/03/04 00:15:02;;;;;;;15.73;9.80;;;3.70;99.90;;;;;;5045961;28;20071;-72
2023/03/04 00:17:30;;;;;;;16.60;10.45;;;3.50;99.90;;;;;;5054396;28;20033;-72
2023/03/04 00:19:56;;;;;;;16.33;10.60;;;3.30;99.90;;;;;;5045056;28;20515;-72
2023/03/04 00:22:22;;;;;;;18.10;10.80;;;3.20;99.90;;;;;;5043565;28;20033;-71
2023/03/04 00:24:47;;;;;;;19.70;12.15;;;3.20;99.90;;;;;;5048556;28;20059;-72
2023/03/04 00:27:13;;;;;;;17.58;10.35;;;3.30;99.90;;;;;;5046487;28;20037;-71
2023/03/04 00:29:39;;;;;;;14.15;9.85;;;3.40;99.90;;;;;;5044474;28;20568;-72
2023/03/04 00:32:05;;;;;;;15.90;9.20;;;3.20;99.90;;;;;;5054973;28;20043;-72
2023/03/04 00:34:30;;;;;;;19.58;10.07;;;3.00;99.90;;;;;;5049871;28;20047;-72
2023/03/04 00:37:00;;;;;;;16.13;10.30;;;3.00;99.90;;;;;;5055471;28;20032;-72
2023/03/04 00:39:27;;;;;;;15.48;10.07;;;2.90;99.90;;;;;;5049466;28;20060;-72
2023/03/04 00:41:53;;;;;;;16.63;9.20;;;2.70;99.90;;;;;;5048371;28;20040;-74
2023/03/04 00:44:18;;;;;;;15.77;9.02;;;2.60;99.90;;;;;;5052394;28;20044;-73
2023/03/04 00:46:44;;;;;;;14.32;9.20;;;2.60;99.90;;;;;;5051851;28;20097;-74
2023/03/04 00:49:10;;;;;;;16.17;8.82;;;2.60;99.90;;;;;;5053882;28;20437;-74
2023/03/04 00:51:36;;;;;;;16.50;9.25;;;2.70;99.90;;;;;;5026835;28;20118;-73
2023/03/04 00:54:02;;;;;;;13.98;8.57;;;2.70;99.90;;;;;;5042144;28;20099;-77
2023/03/04 00:56:27;;;;;;;14.32;8.57;;;2.70;99.90;;;;;;5049202;28;20086;-78
2023/03/04 00:58:53;;;;;;;15.65;8.70;;;2.50;99.90;;;;;;5049964;28;20622;-80
2023/03/04 01:01:19;;;;;;;14.32;8.55;;;2.60;99.90;;;;;;5044732;28;20438;-75
2023/03/04 01:03:44;;;;;;;12.13;8.15;;;2.50;99.90;;;;;;5040262;28;20041;-78
2023/03/04 01:06:11;;;;;;;16.33;8.30;;;2.50;99.90;;;;;;5049748;28;20071;-78
2023/03/04 01:08:37;;;;;;;14.95;7.95;;;2.40;99.90;;;;;;5044506;28;20039;-77
2023/03/04 01:11:03;;;;;;;11.20;7.03;;;2.10;99.90;;;;;;5036330;28;20044;-76
2023/03/04 01:13:28;;;;;;;13.82;8.02;;;2.00;99.90;;;;;;5044712;28;20056;-77
2023/03/04 01:15:54;;;;;;;14.85;8.60;;;2.10;99.90;;;;;;5048204;28;20033;-78
2023/03/04 01:18:20;;;;;;;19.65;8.95;;;2.10;99.90;;;;;;5046789;28;20130;-77
2023/03/04 01:20:46;;;;;;;15.43;8.10;;;2.10;99.90;;;;;;5041523;28;20040;-78
2023/03/04 01:23:12;;;;;;;12.35;7.57;;;2.20;99.90;;;;;;5035175;28;21223;-76
2023/03/04 01:25:37;;;;;;;13.85;7.55;;;2.00;99.90;;;;;;5043388;28;20028;-77
2023/03/04 01:28:03;;;;;;;12.38;8.00;;;1.90;99.90;;;;;;5034161;28;20131;-77
2023/03/04 01:30:29;;;;;;;16.52;8.48;;;1.80;99.90;;;;;;5036461;28;20039;-76
2023/03/04 01:32:54;;;;;;;12.75;8.68;;;1.80;99.90;;;;;;5034767;28;20079;-77
2023/03/04 01:35:21;;;;;;;12.45;7.13;;;1.80;99.90;;;;;;5044226;28;20111;-76
2023/03/04 01:37:46;;;;;;;12.50;7.97;;;1.90;99.90;;;;;;5038963;28;21294;-76
2023/03/04 01:40:12;;;;;;;13.23;7.88;;;1.80;99.90;;;;;;5038866;28;20487;-76
2023/03/04 01:42:38;;;;;;;12.63;7.50;;;1.80;99.90;;;;;;5040598;28;20041;-76
2023/03/04 01:45:05;;;;;;;12.88;7.13;;;1.70;99.90;;;;;;5040077;28;20806;-75
2023/03/04 01:47:34;;;;;;;13.07;7.70;;;1.70;99.90;;;;;;5042842;28;20033;-76
2023/03/04 01:50:03;;;;;;;13.27;8.63;;;1.70;99.90;;;;;;5038510;28;20136;-75
2023/03/04 01:52:28;;;;;;;15.93;10.13;;;1.60;99.90;;;;;;5041606;28;20114;-75
2023/03/04 01:54:54;;;;;;;13.38;7.82;;;1.70;99.90;;;;;;5040750;28;20046;-75
2023/03/04 01:57:22;;;;;;;12.50;6.82;;;1.80;99.90;;;;;;5033532;28;20052;-75
2023/03/04 02:00:14;;;;;;;12.00;7.30;;;1.70;99.90;;;;;;5035862;28;20130;-76
2023/03/04 02:02:40;;;;;;;11.30;6.65;;;1.60;99.90;;;;;;5037032;28;20044;-74
2023/03/04 02:05:06;;;;;;;11.35;6.80;;;1.40;99.90;;;;;;5049151;28;20041;-75
2023/03/04 02:07:31;;;;;;;12.52;7.05;;;1.20;99.90;;;;;;5049235;28;20078;-75
2023/03/04 02:09:57;;;;;;;10.65;6.93;;;1.00;99.90;;;;;;5046251;28;20131;-75
2023/03/04 02:12:23;;;;;;;10.93;6.75;;;1.00;99.90;;;;;;5043380;28;20132;-75
2023/03/04 02:14:48;;;;;;;11.35;7.45;;;1.00;99.90;;;;;;5047844;28;20178;-75
2023/03/04 02:17:14;;;;;;;14.43;7.72;;;1.00;99.90;;;;;;5036959;28;20077;-76
2023/03/04 02:19:51;;;;;;;9.98;6.57;;;1.00;99.90;;;;;;5045846;28;20037;-67
2023/03/04 02:22:17;;;;;;;11.70;7.47;;;1.00;99.90;;;;;;5028942;28;20045;-67
2023/03/04 02:24:52;;;;;;;11.20;7.03;;;1.00;99.90;;;;;;5046100;28;20056;-67
2023/03/04 02:27:17;;;;;;;13.02;7.55;;;0.90;99.90;;;;;;5046393;28;20041;-67
2023/03/04 02:29:43;;;;;;;12.50;7.45;;;0.70;99.90;;;;;;5046102;28;20059;-67
2023/03/04 02:32:13;;;;;;;12.13;6.93;;;0.60;99.90;;;;;;5042882;28;20025;-67
2023/03/04 02:34:45;;;;;;;13.63;7.90;;;0.60;99.90;;;;;;5046557;28;20049;-67
2023/03/04 02:37:11;;;;;;;14.57;8.48;;;0.70;99.90;;;;;;5043314;28;20118;-67
2023/03/04 02:39:40;;;;;;;12.48;7.65;;;0.70;99.90;;;;;;5046798;28;20851;-67
2023/03/04 02:42:06;;;;;;;13.77;7.32;;;0.70;99.90;;;;;;5050633;28;20033;-67
2023/03/04 02:44:35;;;;;;;13.13;7.53;;;0.70;99.90;;;;;;5048053;28;20307;-66
2023/03/04 02:47:02;;;;;;;12.32;7.57;;;0.70;99.90;;;;;;5040789;28;20088;-67
2023/03/04 02:49:30;;;;;;;15.48;8.50;;;0.60;99.90;;;;;;5037843;28;23251;-67
2023/03/04 02:52:24;;;;;;;11.68;8.20;;;0.60;99.90;;;;;;5046687;28;20040;-67
2023/03/04 02:54:50;;;;;;;13.52;8.02;;;0.70;99.90;;;;;;5050298;28;20062;-66
2023/03/04 02:57:16;;;;;;;14.80;9.18;;;0.70;99.90;;;;;;5051316;28;20036;-67
2023/03/04 02:59:42;;;;;;;12.55;7.85;;;0.70;99.90;;;;;;5040699;28;20067;-67
2023/03/04 03:02:08;;;;;;;12.77;7.30;;;0.80;99.90;;;;;;5044770;28;20051;-66
2023/03/04 03:04:36;;;;;;;12.05;7.15;;;0.70;99.90;;;;;;5044645;28;20040;-67
2023/03/04 03:07:02;;;;;;;11.15;7.57;;;0.60;99.90;;;;;;5050810;28;20037;-68
2023/03/04 03:09:28;;;;;;;12.73;7.60;;;0.50;99.90;;;;;;5045562;28;20343;-67
2023/03/04 03:11:54;;;;;;;14.02;8.23;;;0.50;99.90;;;;;;5034800;28;20033;-67
2023/03/04 03:14:19;;;;;;;12.13;7.55;;;0.50;99.90;;;;;;5044223;28;20044;-67
2023/03/04 03:16:45;;;;;;;13.15;6.97;;;0.50;99.90;;;;;;5046704;28;20485;-67
2023/03/04 03:19:11;;;;;;;13.50;6.90;;;0.30;99.90;;;;;;5044977;28;20131;-67
2023/03/04 03:21:36;;;;;;;12.98;7.55;;;0.30;99.90;;;;;;5039321;28;20511;-67
2023/03/04 03:24:02;;;;;;;12.93;7.32;;;0.20;99.90;;;;;;5048973;28;20425;-67
2023/03/04 03:26:28;;;;;;;13.52;7.40;;;0.20;99.90;;;;;;5042422;28;20835;-66
2023/03/04 03:28:54;;;;;;;10.93;6.82;;;0.00;99.90;;;;;;5044577;28;20033;-67
2023/03/04 03:31:19;;;;;;;13.52;7.88;;;0.00;99.90;;;;;;5040348;28;20365;-66
2023/03/04 03:33:45;;;;;;;15.65;7.50;;;-0.10;99.90;;;;;;5048655;28;20032;-66
2023/03/04 03:36:11;;;;;;;13.45;8.65;;;0.00;99.90;;;;;;5031236;28;20116;-66
2023/03/04 03:38:37;;;;;;;17.27;8.00;;;0.10;99.90;;;;;;5046332;28;20041;-67
2023/03/04 03:41:04;;;;;;;13.55;8.10;;;0.20;99.90;;;;;;5049509;28;20071;-67
2023/03/04 03:43:29;;;;;;;15.00;9.32;;;0.20;99.90;;;;;;5049521;28;20373;-67
2023/03/04 03:45:55;;;;;;;16.23;9.25;;;0.20;99.90;;;;;;5048710;28;20053;-67
2023/03/04 03:48:21;;;;;;;16.15;8.95;;;0.30;99.90;;;;;;5048859;28;20127;-66
2023/03/04 03:50:46;;;;;;;14.07;8.20;;;0.30;99.90;;;;;;5048736;28;20052;-66
2023/03/04 03:53:12;;;;;;;13.02;7.15;;;0.30;99.90;;;;;;5037938;28;20104;-67
2023/03/04 03:55:38;;;;;;;13.98;7.28;;;0.30;99.90;;;;;;5048868;28;20086;-67
2023/03/04 03:58:04;;;;;;;14.98;7.88;;;0.20;99.90;;;;;;5050586;28;20041;-67
2023/03/04 04:00:29;;;;;;;12.73;7.90;;;0.10;99.90;;;;;;5038183;28;20656;-67
2023/03/04 04:02:58;;;;;;;11.32;7.00;;;0.00;99.90;;;;;;5050795;28;20039;-67
2023/03/04 04:05:24;;;;;;;13.15;7.88;;;-0.20;99.90;;;;;;5038884;28;20474;-66
2023/03/04 04:07:50;;;;;;;13.05;7.97;;;-0.30;99.90;;;;;;5044025;28;24688;-67
2023/03/04 04:10:15;;;;;;;14.60;8.57;;;-0.30;99.90;;;;;;5047341;28;20037;-67
2023/03/04 04:12:41;;;;;;;13.32;7.53;;;-0.30;99.90;;;;;;5039574;28;20040;-67
2023/03/04 04:15:09;;;;;;;13.95;7.88;;;-0.10;99.90;;;;;;5039882;28;20078;-66
2023/03/04 04:17:35;;;;;;;12.60;7.55;;;-0.10;99.90;;;;;;5052402;28;20136;-66
2023/03/04 04:20:00;;;;;;;15.98;8.35;;;-0.20;99.90;;;;;;5053648;28;20093;-67
2023/03/04 04:22:26;;;;;;;11.77;7.60;;;-0.30;99.90;;;;;;5049476;28;20049;-66
2023/03/04 04:24:52;;;;;;;12.77;8.32;;;-0.40;99.90;;;;;;5047830;28;20033;-66
2023/03/04 04:27:17;;;;;;;14.88;7.78;;;-0.30;99.90;;;;;;5047654;28;20033;-67
2023/03/04 04:29:43;;;;;;;16.55;7.53;;;-0.30;99.90;;;;;;5047536;28;20048;-67
2023/03/04 04:32:11;;;;;;;13.20;8.23;;;-0.40;99.90;;;;;;5045839;28;20124;-67
2023/03/04 04:34:37;;;;;;;12.70;7.82;;;-0.40;99.90;;;;;;5046625;28;20048;-66
2023/03/04 04:37:03;;;;;;;17.73;9.05;;;-0.40;99.90;;;;;;5038392;28;20041;-67
2023/03/04 04:39:29;;;;;;;12.82;8.27;;;-0.40;99.90;;;;;;5034352;28;20040;-67
2023/03/04 04:41:55;;;;;;;13.40;8.73;;;-0.30;99.90;;;;;;5053582;28;20035;-66
2023/03/04 04:44:20;;;;;;;13.85;8.82;;;-0.20;99.90;;;;;;5051364;28;20112;-66
2023/03/04 04:46:46;;;;;;;13.75;7.68;;;-0.10;99.90;;;;;;5054135;28;20060;-66
2023/03/04 04:49:12;;;;;;;14.85;8.02;;;-0.10;99.90;;;;;;5050390;28;20443;-67
2023/03/04 04:51:38;;;;;;;14.25;8.15;;;-0.20;99.90;;;;;;5055609;28;20461;-67
2023/03/04 04:54:04;;;;;;;12.15;7.28;;;-0.30;99.90;;;;;;5054439;28;20056;-67
2023/03/04 04:56:29;;;;;;;11.98;7.93;;;-0.40;99.90;;;;;;5053185;28;20032;-67
2023/03/04 04:58:57;;;;;;;14.48;8.48;;;-0.40;99.90;;;;;;5044291;28;20524;-67
2023/03/04 05:01:23;;;;;;;14.88;9.07;;;-0.50;99.90;;;;;;5046010;28;20029;-67
2023/03/04 05:03:52;;;;;;;14.20;8.75;;;-0.70;99.90;;;;;;5057458;28;20114;-68
2023/03/04 05:06:19;;;;;;;13.52;8.05;;;-0.70;99.90;;;;;;5047800;28;20590;-73
2023/03/04 05:08:46;;;;;;;15.02;8.15;;;-0.70;99.90;;;;;;5057311;28;20047;-73
2023/03/04 05:11:12;;;;;;;15.60;7.75;;;-0.60;99.90;;;;;;5044813;28;20025;-73
2023/03/04 05:13:38;;;;;;;14.07;8.27;;;-0.60;99.90;;;;;;5048506;28;20056;-73
2023/03/04 05:16:04;;;;;;;16.40;8.70;;;-0.60;99.90;;;;;;5056656;28;20028;-74
2023/03/04 05:18:30;;;;;;;15.27;8.27;;;-0.50;99.90;;;;;;5055798;28;20535;-73
2023/03/04 05:20:58;;;;;;;13.90;7.63;;;-0.40;99.90;;;;;;5056318;28;20044;-73
2023/03/04 05:23:25;;;;;;;11.90;7.82;;;-0.40;99.90;;;;;;5052652;28;20063;-74
2023/03/04 05:25:52;;;;;;;15.68;8.77;;;-0.50;99.90;;;;;;5051587;28;20115;-67
2023/03/04 05:28:18;;;;;;;15.43;8.85;;;-0.60;99.90;;;;;;5056888;28;20040;-68
2023/03/04 05:30:45;;;;;;;14.82;9.10;;;-0.70;99.90;;;;;;5057660;28;20127;-67
2023/03/04 05:33:12;;;;;;;15.40;8.80;;;-0.80;99.90;;;;;;5044525;28;20113;-67
2023/03/04 05:35:39;;;;;;;16.58;8.32;;;-0.80;99.90;;;;;;5063511;28;20032;-67
2023/03/04 05:38:07;;;;;;;14.95;8.25;;;-0.80;99.90;;;;;;5055326;28;20089;-67
2023/03/04 05:40:33;;;;;;;14.55;8.05;;;-0.70;99.90;;;;;;5053970;28;20044;-68
2023/03/04 05:42:59;;;;;;;15.45;7.47;;;-0.70;99.90;;;;;;5048267;28;20081;-67
2023/03/04 05:45:26;;;;;;;15.75;8.05;;;-0.60;99.90;;;;;;5052533;28;20043;-67
2023/03/04 05:47:53;;;;;;;15.13;8.68;;;-0.60;99.90;;;;;;5058235;28;20068;-68
2023/03/04 05:50:19;;;;;;;14.10;7.90;;;-0.50;99.90;;;;;;5058294;28;20033;-67
2023/03/04 05:52:45;;;;;;;13.82;7.80;;;-0.40;99.90;;;;;;5063421;28;20157;-68
2023/03/04 05:55:11;;;;;;;13.13;8.43;;;-0.40;99.90;;;;;;5039259;28;20056;-68
2023/03/04 05:57:38;;;;;;;17.50;7.72;;;-0.50;99.90;;;;;;5037846;28;20238;-67
2023/03/04 06:00:08;;;;;;;19.95;11.35;;;-0.40;99.90;;;;;;5056142;28;20028;-67
2023/03/04 06:02:34;;;;;;;29.08;18.30;;;-0.20;99.90;;;;;;5061261;28;20045;-67
2023/03/04 06:05:00;;;;;;;27.23;14.88;;;0.00;99.90;;;;;;5047148;28;20029;-68
2023/03/04 06:07:25;;;;;;;18.63;10.82;;;0.10;99.90;;;;;;5049742;28;20051;-67
2023/03/04 06:09:51;;;;;;;22.90;11.95;;;0.30;99.90;;;;;;5036864;28;20032;-67
2023/03/04 06:12:17;;;;;;;22.00;13.02;;;0.40;99.90;;;;;;5051196;28;20091;-67
2023/03/04 06:14:42;;;;;;;15.30;8.40;;;0.40;99.90;;;;;;5043251;28;20126;-68
2023/03/04 06:17:08;;;;;;;15.93;9.57;;;0.40;99.90;;;;;;5045333;28;20037;-68
2023/03/04 06:19:36;;;;;;;17.65;10.57;;;0.50;99.90;;;;;;5047830;28;20072;-75
2023/03/04 06:22:03;;;;;;;16.17;9.32;;;0.60;99.90;;;;;;5052399;28;20093;-75
2023/03/04 06:24:28;;;;;;;13.85;7.30;;;0.80;99.90;;;;;;5040822;28;20218;-74
2023/03/04 06:26:54;;;;;;;17.63;9.27;;;0.90;99.90;;;;;;5051641;28;20585;-76
2023/03/04 06:29:20;;;;;;;15.05;9.13;;;1.10;99.90;;;;;;5045289;28;20087;-76
2023/03/04 06:31:46;;;;;;;19.77;12.15;;;1.30;99.90;;;;;;5045625;28;20757;-74
2023/03/04 06:34:11;;;;;;;13.60;8.27;;;1.30;99.90;;;;;;5051786;28;21459;-74
2023/03/04 06:36:37;;;;;;;14.95;9.05;;;1.40;99.90;;;;;;5056102;28;20421;-75
2023/03/04 06:39:05;;;;;;;14.85;9.23;;;1.60;99.90;;;;;;5052262;28;20120;-75
2023/03/04 06:41:30;;;;;;;16.95;10.57;;;1.70;99.90;;;;;;5042874;28;20059;-74
2023/03/04 06:43:56;;;;;;;17.38;10.95;;;1.70;99.90;;;;;;5046441;28;20040;-75
2023/03/04 06:46:22;;;;;;;20.83;11.50;;;1.80;99.90;;;;;;5047937;28;20461;-75
2023/03/04 06:48:48;;;;;;;21.52;11.98;;;1.90;99.90;;;;;;5024952;28;20658;-76
2023/03/04 06:51:14;;;;;;;18.08;11.52;;;1.90;99.90;;;;;;5043592;28;20036;-76
2023/03/04 06:53:40;;;;;;;16.98;10.23;;;2.00;99.90;;;;;;5052083;28;20051;-76
2023/03/04 06:56:09;;;;;;;19.42;11.52;;;2.10;99.90;;;;;;5047815;28;20125;-77
2023/03/04 06:58:35;;;;;;;19.15;11.48;;;2.20;99.90;;;;;;5030620;28;20041;-67
2023/03/04 07:01:19;;;;;;;21.60;12.05;;;2.30;99.90;;;;;;5031945;28;20060;-67
2023/03/04 07:03:46;;;;;;;20.73;11.63;;;2.40;99.90;;;;;;5024586;28;20636;-67
2023/03/04 07:06:13;;;;;;;19.48;10.88;;;2.50;99.90;;;;;;5045456;28;20066;-67
2023/03/04 07:08:40;;;;;;;19.10;11.73;;;2.70;99.90;;;;;;5048923;28;20390;-65
2023/03/04 07:11:06;;;;;;;22.02;11.98;;;2.90;99.90;;;;;;5030802;28;21545;-64
2023/03/04 07:13:33;;;;;;;20.67;11.93;;;3.10;99.90;;;;;;5046363;28;20037;-65
2023/03/04 07:15:59;;;;;;;19.77;11.57;;;3.30;99.90;;;;;;5047040;28;20037;-74
2023/03/04 07:18:25;;;;;;;21.02;11.90;;;3.50;99.90;;;;;;5040218;28;20021;-76
2023/03/04 07:20:53;;;;;;;16.95;10.02;;;3.70;99.90;;;;;;5045096;28;20522;-76
2023/03/04 07:23:19;;;;;;;19.75;11.70;;;4.00;99.90;;;;;;5038146;28;20180;-78
2023/03/04 07:25:45;;;;;;;17.08;10.52;;;4.40;99.90;;;;;;5027256;28;20037;-83
2023/03/04 07:28:11;;;;;;;20.23;11.18;;;4.80;99.90;;;;;;5038635;28;20079;-80
2023/03/04 07:30:36;;;;;;;18.25;10.65;;;5.00;99.90;;;;;;5048719;28;20172;-74
2023/03/04 07:33:02;;;;;;;21.70;12.65;;;5.20;99.90;;;;;;5037742;28;20259;-74
2023/03/04 07:35:28;;;;;;;16.70;11.88;;;5.40;99.90;;;;;;5042152;28;23773;-78
2023/03/04 07:37:54;;;;;;;21.45;14.02;;;5.80;99.90;;;;;;5047666;28;20059;-72
2023/03/04 07:40:19;;;;;;;20.45;14.07;;;6.10;99.90;;;;;;5037030;28;20039;-73
2023/03/04 07:42:55;;;;;;;22.67;12.98;;;6.40;99.90;;;;;;5047128;28;20028;-72
2023/03/04 07:45:22;;;;;;;21.15;12.77;;;6.60;99.90;;;;;;5041268;28;20441;-73
2023/03/04 07:47:48;;;;;;;21.63;13.30;;;6.80;99.90;;;;;;5025685;28;20029;-69
2023/03/04 07:50:15;;;;;;;26.50;13.18;;;7.00;99.90;;;;;;5028351;28;20307;-70
2023/03/04 07:52:43;;;;;;;18.88;12.88;;;7.10;99.90;;;;;;5027528;28;20068;-70
2023/03/04 07:55:11;;;;;;;17.50;11.77;;;7.30;99.90;;;;;;5037943;28;20155;-71
2023/03/04 07:57:45;;;;;;;19.05;12.77;;;7.50;99.90;;;;;;5030297;28;20067;-69
2023/03/04 08:00:13;;;;;;;20.00;12.10;;;7.70;99.90;;;;;;5029251;28;20040;-72
2023/03/04 08:02:39;;;;;;;18.08;11.95;;;7.90;99.90;;;;;;5032852;28;20041;-69
2023/03/04 08:05:05;;;;;;;17.63;11.52;;;8.00;99.90;;;;;;5031955;28;20957;-70
2023/03/04 08:07:31;;;;;;;17.45;10.93;;;8.10;99.90;;;;;;5032342;28;20037;-67
2023/03/04 08:09:56;;;;;;;19.67;12.40;;;8.10;99.90;;;;;;5030273;28;20040;-64
2023/03/04 08:12:25;;;;;;;19.17;11.30;;;8.20;99.90;;;;;;5036496;28;20520;-65
2023/03/04 08:14:51;;;;;;;15.15;10.95;;;8.30;99.90;;;;;;5043112;28;20052;-67
2023/03/04 08:17:17;;;;;;;16.38;10.55;;;8.20;99.90;;;;;;5042407;28;20036;-66
2023/03/04 08:19:43;;;;;;;14.57;10.65;;;8.30;99.90;;;;;;5038034;28;20036;-66
2023/03/04 08:22:09;;;;;;;16.73;11.43;;;8.40;99.90;;;;;;5032303;28;20033;-65
2023/03/04 08:24:35;;;;;;;17.15;11.77;;;8.40;99.90;;;;;;5045967;28;20061;-65
2023/03/04 08:27:01;;;;;;;17.35;12.20;;;8.70;99.90;;;;;;5049763;28;20126;-65
2023/03/04 08:29:26;;;;;;;17.02;11.18;;;9.00;99.90;;;;;;5034214;28;20130;-69
2023/03/04 08:31:54;;;;;;;18.58;11.00;;;9.10;99.90;;;;;;5030306;28;20037;-70
2023/03/04 08:34:22;;;;;;;16.48;10.95;;;9.30;99.90;;;;;;5029366;28;20052;-70
2023/03/04 08:36:48;;;;;;;17.92;11.38;;;9.50;99.70;;;;;;5032404;28;20033;-70
2023/03/04 08:39:15;;;;;;;16.20;10.88;;;9.70;97.10;;;;;;5034545;28;20117;-69
2023/03/04 08:41:41;;;;;;;13.30;9.05;;;10.00;94.60;;;;;;5044052;28;20104;-69
2023/03/04 08:44:09;;;;;;;12.65;8.50;;;10.30;91.60;;;;;;5041541;28;20050;-68
2023/03/04 08:46:35;;;;;;;14.30;8.68;;;10.50;87.50;;;;;;5042610;28;20113;-71
2023/03/04 08:49:01;;;;;;;11.90;7.45;;;10.60;84.40;;;;;;5045514;28;20042;-71
2023/03/04 08:51:27;;;;;;;9.38;6.38;;;10.70;79.60;;;;;;5045390;28;20028;-71
2023/03/04 08:53:54;;;;;;;8.75;6.32;;;10.70;78.20;;;;;;5041042;28;20048;-70
2023/03/04 08:56:20;;;;;;;8.55;6.15;;;10.80;74.50;;;;;;5016449;28;20039;-70
2023/03/04 08:58:46;;;;;;;7.55;5.63;;;10.90;74.30;;;;;;5047985;28;20036;-71
2023/03/04 09:01:13;;;;;;;9.30;4.65;;;11.10;75.10;;;;;;5031308;28;20405;-71
2023/03/04 09:03:39;;;;;;;9.75;5.10;;;11.20;67.80;;;;;;5030649;28;20041;-72
2023/03/04 09:06:07;;;;;;;8.23;5.10;;;11.20;66.90;;;;;;5043266;28;20265;-71
2023/03/04 09:08:34;;;;;;;7.97;3.72;;;11.30;67.20;;;;;;5011380;28;20033;-70
2023/03/04 09:11:00;;;;;;;6.95;4.10;;;11.40;65.30;;;;;;5046651;28;20029;-70
2023/03/04 09:13:28;;;;;;;5.70;4.45;;;11.50;61.90;;;;;;5025910;28;20624;-71
2023/03/04 09:15:54;;;;;;;6.47;3.63;;;11.50;60.10;;;;;;5021603;28;20033;-71
2023/03/04 09:18:21;;;;;;;6.18;3.30;;;11.50;59.50;;;;;;5034480;28;20040;-70
2023/03/04 09:20:47;;;;;;;5.38;3.00;;;11.40;57.50;;;;;;5034210;28;20059;-69
2023/03/04 09:23:13;;;;;;;6.43;4.05;;;11.50;57.80;;;;;;5040631;28;20517;-66
2023/03/04 09:25:39;;;;;;;7.32;4.30;;;11.60;56.30;;;;;;5046613;28;20051;-66
2023/03/04 09:28:06;;;;;;;5.53;4.00;;;11.70;56.80;;;;;;5031818;28;20048;-65
2023/03/04 09:30:33;;;;;;;5.47;2.88;;;11.80;56.70;;;;;;5039256;28;20040;-65
2023/03/04 09:32:59;;;;;;;4.13;2.75;;;11.80;57.40;;;;;;5038025;28;20099;-65
2023/03/04 09:35:26;;;;;;;4.10;3.47;;;11.70;54.90;;;;;;5035563;28;20037;-65
2023/03/04 09:37:52;;;;;;;10.50;3.65;;;11.30;55.50;;;;;;5036549;28;20130;-66
2023/03/04 09:40:36;;;;;;;7.72;3.67;;;11.10;54.10;;;;;;5036818;28;20053;-66
2023/03/04 09:43:04;;;;;;;5.78;3.90;;;10.80;58.70;;;;;;5042036;28;21149;-66
2023/03/04 09:45:56;;;;;;;6.40;3.88;;;10.70;57.50;;;;;;5034462;28;20040;-67
2023/03/04 09:48:26;;;;;;;5.55;4.00;;;10.70;56.10;;;;;;5048906;28;20358;-66
2023/03/04 09:51:06;;;;;;;4.93;4.03;;;10.80;57.00;;;;;;5035537;28;20393;-65
2023/03/04 09:53:42;;;;;;;5.60;3.55;;;10.80;56.10;;;;;;5041384;28;21906;-65
2023/03/04 09:56:10;;;;;;;3.80;2.90;;;10.80;53.90;;;;;;5056132;28;20037;-65
2023/03/04 09:58:46;;;;;;;10.32;3.67;;;10.90;52.90;;;;;;5033591;28;20493;-65
2023/03/04 10:01:41;;;;;;;6.93;4.65;;;10.90;51.90;;;;;;5048060;28;20045;-66
2023/03/04 10:04:20;;;;;;;8.13;5.57;;;11.10;53.00;;;;;;5046066;28;20045;-65
2023/03/04 10:06:53;;;;;;;12.23;7.55;;;11.10;56.90;;;;;;5046512;28;20032;-65
2023/03/04 10:09:42;;;;;;;8.80;6.97;;;11.10;57.90;;;;;;5037626;28;20032;-65
2023/03/04 10:12:14;;;;;;;13.95;8.18;;;11.00;59.10;;;;;;5047803;28;20163;-65
2023/03/04 10:14:39;;;;;;;;;;;11.00;59.80;;;;;;5044494;28;20049;-65
2023/03/04 10:17:18;;;;;;;12.05;7.97;;;10.80;60.50;;;;;;5048238;28;19924;-65
2023/03/04 10:19:53;;;;;;;10.65;6.13;;;10.80;61.70;;;;;;5038443;28;20048;-64
2023/03/04 10:22:42;;;;;;;11.02;7.07;;;11.00;62.00;;;;;;5041729;28;20028;-65
2023/03/04 10:25:21;;;;;;;21.13;7.75;;;11.00;59.80;;;;;;5048848;28;20037;-65
2023/03/04 10:27:59;;;;;;;10.55;7.65;;;11.00;59.60;;;;;;5047306;28;20614;-65
2023/03/04 10:30:50;;;;;;;11.73;8.05;;;10.80;61.10;;;;;;5045882;28;20048;-65
2023/03/04 10:33:33;;;;;;;10.75;8.13;;;10.80;61.20;;;;;;5038016;28;20036;-66
2023/03/04 10:36:04;;;;;;;9.10;7.18;;;10.70;60.50;;;;;;5044302;28;20040;-67
2023/03/04 10:38:41;;;;;;;11.38;7.95;;;10.60;60.30;;;;;;5019539;28;20037;-67
2023/03/04 10:41:25;;;;;;;12.05;7.97;;;10.70;61.50;;;;;;5046175;28;20055;-68
2023/03/04 10:44:03;;;;;;;12.60;8.98;;;10.80;61.50;;;;;;5043879;28;20066;-71
2023/03/04 10:46:30;;;;;;;10.80;7.38;;;10.80;62.80;;;;;;5022713;28;20257;-69
2023/03/04 10:48:57;;;;;;;8.35;6.20;;;10.80;59.80;;;;;;5010233;28;20040;-71
2023/03/04 10:51:26;;;;;;;7.82;5.80;;;10.90;59.00;;;;;;5027794;28;20028;-68
2023/03/04 10:53:57;;;;;;;14.68;8.82;;;11.00;55.80;;;;;;5038248;28;20573;-70
2023/03/04 10:56:38;;;;;;;10.45;7.53;;;11.10;62.20;;;;;;5035707;28;20041;-69
2023/03/04 10:59:31;;;;;;;13.82;9.90;;;11.20;58.30;;;;;;5046339;28;20128;-71
2023/03/04 11:02:21;;;;;;;11.38;8.45;;;11.20;61.10;;;;;;5034368;28;20226;-71
2023/03/04 11:04:56;;;;;;;16.85;11.07;;;11.10;60.50;;;;;;5026563;28;20045;-70
2023/03/04 11:07:26;;;;;;;11.23;8.07;;;10.90;59.80;;;;;;5038420;28;20040;-69
2023/03/04 11:09:52;;;;;;;12.15;7.75;;;10.90;60.20;;;;;;5035619;28;20049;-69
2023/03/04 11:12:21;;;;;;;11.15;7.80;;;11.10;58.60;;;;;;5042206;28;20083;-71
2023/03/04 11:14:49;;;;;;;14.52;10.50;;;11.00;59.30;;;;;;5018717;28;20044;-69
2023/03/04 11:17:27;;;;;;;13.38;8.57;;;11.10;63.20;;;;;;5041898;28;20126;-71
2023/03/04 11:20:09;;;;;;;13.27;9.70;;;11.20;61.90;;;;;;5044257;28;20028;-67
2023/03/04 11:22:34;;;;;;;13.27;9.70;;;11.00;62.80;;;;;;5040258;28;20044;-68
2023/03/04 11:25:20;;;;;;;13.18;9.07;;;11.10;65.60;;;;;;5041138;28;20099;-69
2023/03/04 11:27:50;;;;;;;13.30;8.85;;;11.00;61.90;;;;;;5044021;28;20095;-71
2023/03/04 11:30:50;;;;;;;13.98;8.95;;;11.10;64.10;;;;;;5028474;28;20037;-70
2023/03/04 11:33:22;;;;;;;11.77;8.80;;;11.30;61.90;;;;;;4979246;28;20051;-70
2023/03/04 11:36:12;;;;;;;10.75;7.97;;;11.30;61.10;;;;;;5035338;28;20102;-69
2023/03/04 11:38:41;;;;;;;11.93;8.20;;;11.20;59.40;;;;;;5042280;28;20126;-71
2023/03/04 11:41:19;;;;;;;11.52;8.63;;;11.10;61.60;;;;;;5033023;28;20028;-69
2023/03/04 11:43:46;;;;;;;10.70;8.10;;;11.00;61.40;;;;;;5019707;28;20904;-70
2023/03/04 11:46:24;;;;;;;10.60;7.40;;;10.90;60.40;;;;;;5036281;28;20429;-70
2023/03/04 11:49:23;;;;;;;11.68;7.72;;;10.80;59.60;;;;;;5038296;28;20033;-69
2023/03/04 11:52:11;;;;;;;11.75;8.15;;;10.80;60.50;;;;;;5042996;28;20048;-68
2023/03/04 11:54:56;;;;;;;12.10;7.80;;;10.90;60.70;;;;;;5041187;28;20055;-71
2023/03/04 11:57:27;;;;;;;9.77;7.18;;;11.00;62.60;;;;;;5022603;28;20048;-71
2023/03/04 12:00:18;;;;;;;12.50;7.78;;;11.10;59.00;;;;;;5033753;28;20032;-69
2023/03/04 12:03:17;;;;;;;10.25;7.80;;;11.20;61.60;;;;;;5037491;28;20037;-70
2023/03/04 12:06:01;;;;;;;13.05;7.70;;;11.20;59.50;;;;;;5046171;28;20048;-69
2023/03/04 12:08:39;;;;;;;12.60;7.30;;;11.40;59.50;;;;;;5024522;28;20117;-70
2023/03/04 12:11:27;;;;;;;10.57;7.18;;;11.60;60.40;;;;;;5039491;28;20029;-70
2023/03/04 12:14:10;;;;;;;9.27;7.38;;;11.60;58.90;;;;;;5033300;28;20036;-71
2023/03/04 12:16:57;;;;;;;10.48;7.88;;;11.70;61.00;;;;;;5025133;28;20036;-70
2023/03/04 12:20:01;;;;;;;9.02;7.65;;;11.70;60.40;;;;;;5022801;28;20083;-71
2023/03/04 12:22:44;;;;;;;12.68;7.95;;;11.90;61.60;;;;;;5025981;28;20103;-69
2023/03/04 12:25:39;;;;;;;11.27;7.40;;;12.00;60.00;;;;;;5035098;28;20056;-70
2023/03/04 12:28:23;;;;;;;10.30;7.80;;;12.00;59.30;;;;;;5031317;28;20036;-73
2023/03/04 12:31:17;;;;;;;11.88;8.52;;;11.90;61.10;;;;;;5032093;28;20104;-70
2023/03/04 12:34:14;;;;;;;11.13;7.95;;;12.00;59.50;;;;;;5027431;28;20187;-71
2023/03/04 12:36:52;;;;;;;11.30;7.95;;;12.00;59.00;;;;;;5043428;28;20138;-72
2023/03/04 12:39:39;;;;;;;10.35;8.18;;;12.00;57.90;;;;;;5039228;28;20408;-71
2023/03/04 12:42:41;;;;;;;13.60;8.32;;;11.90;59.00;;;;;;5019636;28;20048;-71
2023/03/04 12:45:28;;;;;;;10.37;7.60;;;11.90;59.70;;;;;;5042635;28;20051;-71
2023/03/04 12:48:32;;;;;;;10.13;7.15;;;11.90;59.30;;;;;;5030638;28;20887;-72
2023/03/04 12:51:19;;;;;;;8.75;6.65;;;11.90;57.70;;;;;;5013767;28;20151;-70
2023/03/04 12:54:04;;;;;;;9.55;6.25;;;11.80;55.80;;;;;;5035184;28;20952;-72